Time,TemperatureF,DewpointF,PressureIn,WindDirection,WindDirectionDegrees,WindSpeedMPH,WindSpeedGustMPH,Humidity,HourlyPrecipIn,Conditions,Clouds,dailyrainin,SoftwareType,DateUTC
2013-06-21 00:01:00,67.6,64.2,30.15,ESE,105,0.0,0.0,89,0.00,,,0.00,Wunderground v.1.15,2013-06-21 04:01:00,
2013-06-21 00:02:00,67.5,64.1,30.15,ESE,104,0.0,0.0,89,0.00,,,0.00,Wunderground v.1.15,2013-06-21 04:02:00,
2013-06-21 00:04:00,67.3,63.9,30.15,ESE,105,0.0,0.0,89,0.00,,,0.00,Wunderground v.1.15,2013-06-21 04:04:00,
2013-06-21 00:10:00,67.0,63.6,30.15,ESE,105,0.0,0.0,89,0.00,,,0.00,Wunderground v.1.15,2013-06-21 04:10:00,
2013-06-21 00:16:00,66.6,63.6,30.15,ESE,105,0.0,0.0,90,0.00,,,0.00,Wunderground v.1.15,2013-06-21 04:16:00,
2013-06-21 00:22:00,66.5,63.8,30.15,ESE,105,0.0,0.0,91,0.00,,,0.00,Wunderground v.1.15,2013-06-21 04:22:00,
2013-06-21 00:28:00,66.1,63.4,30.15,ESE,105,0.0,0.0,91,0.00,,,0.00,Wunderground v.1.15,2013-06-21 04:28:00,
2013-06-21 00:33:00,65.8,63.1,30.15,ESE,104,0.0,0.0,91,0.00,,,0.00,Wunderground v.1.15,2013-06-21 04:33:00,
2013-06-21 00:39:00,65.9,63.8,30.15,ESE,105,0.0,0.0,93,0.00,,,0.00,Wunderground v.1.15,2013-06-21 04:39:00,
2013-06-21 00:44:00,66.2,64.1,30.15,ESE,104,0.0,0.0,93,0.00,,,0.00,Wunderground v.1.15,2013-06-21 04:44:00,
2013-06-21 00:50:00,66.5,64.4,30.16,ESE,105,0.0,0.0,93,0.00,,,0.00,Wunderground v.1.15,2013-06-21 04:50:00,
2013-06-21 00:56:00,66.8,64.1,30.15,ESE,104,0.0,0.0,91,0.00,,,0.00,Wunderground v.1.15,2013-06-21 04:56:00,
2013-06-21 01:01:00,66.5,63.8,30.16,ESE,105,0.0,0.0,91,0.00,,,0.00,Wunderground v.1.15,2013-06-21 05:01:00,
2013-06-21 01:07:00,66.0,63.3,30.16,ESE,104,0.0,0.0,91,0.00,,,0.00,Wunderground v.1.15,2013-06-21 05:07:00,
2013-06-21 01:13:00,65.7,63.6,30.16,ESE,105,0.0,0.0,93,0.00,,,0.00,Wunderground v.1.15,2013-06-21 05:13:00,
2013-06-21 01:18:00,65.8,64.0,30.16,ESE,105,0.0,0.0,94,0.00,,,0.00,Wunderground v.1.15,2013-06-21 05:18:00,
2013-06-21 01:24:00,66.0,63.9,30.16,ESE,105,0.0,0.0,93,0.00,,,0.00,Wunderground v.1.15,2013-06-21 05:24:00,
2013-06-21 01:30:00,65.9,63.8,30.16,ESE,104,0.0,0.0,93,0.00,,,0.00,Wunderground v.1.15,2013-06-21 05:30:00,
2013-06-21 01:35:00,65.8,63.7,30.16,ESE,104,0.0,0.0,93,0.00,,,0.00,Wunderground v.1.15,2013-06-21 05:35:00,
2013-06-21 01:41:00,65.6,63.5,30.16,ESE,105,0.0,0.0,93,0.00,,,0.00,Wunderground v.1.15,2013-06-21 05:41:00,
2013-06-21 01:46:00,65.4,63.3,30.17,ESE,105,0.0,0.0,93,0.00,,,0.00,Wunderground v.1.15,2013-06-21 05:46:00,
2013-06-21 01:52:00,65.1,63.3,30.16,ESE,104,0.0,0.0,94,0.00,,,0.00,Wunderground v.1.15,2013-06-21 05:52:00,
2013-06-21 01:58:00,64.9,63.1,30.17,ESE,105,0.0,0.0,94,0.00,,,0.00,Wunderground v.1.15,2013-06-21 05:58:00,
2013-06-21 02:03:00,64.8,63.0,30.17,ESE,104,0.0,0.0,94,0.00,,,0.00,Wunderground v.1.15,2013-06-21 06:03:00,
2013-06-21 02:09:00,64.6,62.8,30.17,ESE,105,0.0,0.0,94,0.00,,,0.00,Wunderground v.1.15,2013-06-21 06:09:00,
2013-06-21 02:15:00,64.3,62.5,30.17,ESE,105,0.0,0.0,94,0.00,,,0.00,Wunderground v.1.15,2013-06-21 06:15:00,
2013-06-21 02:21:00,64.0,62.2,30.17,ESE,104,0.0,0.0,94,0.00,,,0.00,Wunderground v.1.15,2013-06-21 06:21:00,
2013-06-21 02:27:00,63.8,62.3,30.16,ESE,104,0.0,0.0,95,0.00,,,0.00,Wunderground v.1.15,2013-06-21 06:27:00,
2013-06-21 02:33:00,63.8,62.3,30.17,ESE,105,0.0,0.0,95,0.00,,,0.00,Wunderground v.1.15,2013-06-21 06:33:00,
2013-06-21 02:39:00,63.6,62.1,30.17,ESE,105,0.0,0.0,95,0.00,,,0.00,Wunderground v.1.15,2013-06-21 06:39:00,
2013-06-21 02:45:00,63.7,62.5,30.17,ESE,104,0.0,0.0,96,0.00,,,0.00,Wunderground v.1.15,2013-06-21 06:45:00,
2013-06-21 02:51:00,64.1,62.9,30.17,ESE,105,0.0,0.0,96,0.00,,,0.00,Wunderground v.1.15,2013-06-21 06:51:00,
2013-06-21 02:57:00,64.7,63.2,30.17,ESE,105,0.0,0.0,95,0.00,,,0.00,Wunderground v.1.15,2013-06-21 06:57:00,
2013-06-21 03:02:00,65.2,63.4,30.17,East,80,0.0,0.0,94,0.00,,,0.00,Wunderground v.1.15,2013-06-21 07:02:00,
2013-06-21 03:08:00,65.2,63.1,30.17,East,80,0.0,0.0,93,0.00,,,0.00,Wunderground v.1.15,2013-06-21 07:08:00,
2013-06-21 03:14:00,64.7,62.6,30.16,East,81,0.0,0.0,93,0.00,,,0.00,Wunderground v.1.15,2013-06-21 07:14:00,
2013-06-21 03:20:00,64.3,62.5,30.16,SE,146,0.0,0.0,94,0.00,,,0.00,Wunderground v.1.15,2013-06-21 07:20:00,
2013-06-21 03:26:00,64.1,62.3,30.16,SE,146,0.0,0.0,94,0.00,,,0.00,Wunderground v.1.15,2013-06-21 07:26:00,
2013-06-21 03:32:00,63.9,62.4,30.16,SE,146,0.0,0.0,95,0.00,,,0.00,Wunderground v.1.15,2013-06-21 07:32:00,
2013-06-21 03:37:00,64.2,62.7,30.16,ENE,61,0.0,1.0,95,0.00,,,0.00,Wunderground v.1.15,2013-06-21 07:37:00,
2013-06-21 03:43:00,65.9,63.2,30.16,NE,50,1.0,1.0,91,0.00,,,0.00,Wunderground v.1.15,2013-06-21 07:43:00,
2013-06-21 03:49:00,66.8,63.5,30.16,NE,56,1.0,1.0,89,0.00,,,0.00,Wunderground v.1.15,2013-06-21 07:49:00,
2013-06-21 03:54:00,67.2,63.5,30.16,ENE,61,1.0,2.0,88,0.00,,,0.00,Wunderground v.1.15,2013-06-21 07:54:00,
2013-06-21 04:00:00,66.8,63.1,30.16,East,95,0.0,0.0,88,0.00,,,0.00,Wunderground v.1.15,2013-06-21 08:00:00,
2013-06-21 04:06:00,66.4,63.1,30.16,East,95,0.0,1.0,89,0.00,,,0.00,Wunderground v.1.15,2013-06-21 08:06:00,
2013-06-21 04:11:00,65.6,62.6,30.16,SE,132,0.0,0.0,90,0.00,,,0.00,Wunderground v.1.15,2013-06-21 08:11:00,
2013-06-21 04:17:00,65.0,62.3,30.16,SE,133,0.0,0.0,91,0.00,,,0.00,Wunderground v.1.15,2013-06-21 08:17:00,
2013-06-21 04:22:00,64.5,62.1,30.16,SE,133,0.0,0.0,92,0.00,,,0.00,Wunderground v.1.15,2013-06-21 08:22:00,
2013-06-21 04:27:00,64.4,62.3,30.16,SE,133,0.0,0.0,93,0.00,,,0.00,Wunderground v.1.15,2013-06-21 08:27:00,
2013-06-21 04:33:00,64.3,62.2,30.16,SE,132,0.0,0.0,93,0.00,,,0.00,Wunderground v.1.15,2013-06-21 08:33:00,
2013-06-21 04:39:00,64.3,62.2,30.16,SE,133,0.0,0.0,93,0.00,,,0.00,Wunderground v.1.15,2013-06-21 08:39:00,
2013-06-21 04:44:00,64.5,62.4,30.16,ESE,121,0.0,0.0,93,0.00,,,0.00,Wunderground v.1.15,2013-06-21 08:44:00,
2013-06-21 04:50:00,64.6,62.2,30.16,ESE,121,0.0,0.0,92,0.00,,,0.00,Wunderground v.1.15,2013-06-21 08:50:00,
2013-06-21 04:56:00,64.5,62.1,30.16,ESE,122,0.0,0.0,92,0.00,,,0.00,Wunderground v.1.15,2013-06-21 08:56:00,
2013-06-21 05:01:00,64.6,62.2,30.16,ESE,122,0.0,0.0,92,0.00,,,0.00,Wunderground v.1.15,2013-06-21 09:01:00,
2013-06-21 05:07:00,64.9,62.5,30.16,ENE,75,0.0,1.0,92,0.00,,,0.00,Wunderground v.1.15,2013-06-21 09:07:00,
2013-06-21 05:12:00,65.0,62.6,30.16,East,101,0.0,1.0,92,0.00,,,0.00,Wunderground v.1.15,2013-06-21 09:12:00,
2013-06-21 05:18:00,64.9,62.5,30.16,ESE,107,0.0,1.0,92,0.00,,,0.00,Wunderground v.1.15,2013-06-21 09:18:00,
2013-06-21 05:24:00,64.9,62.5,30.16,East,88,1.0,3.0,92,0.00,,,0.00,Wunderground v.1.15,2013-06-21 09:24:00,
2013-06-21 05:30:00,65.0,62.6,30.17,ENE,72,1.0,2.0,92,0.00,,,0.00,Wunderground v.1.15,2013-06-21 09:30:00,
2013-06-21 05:36:00,64.9,62.8,30.17,East,101,1.0,2.0,93,0.00,,,0.00,Wunderground v.1.15,2013-06-21 09:36:00,
2013-06-21 05:42:00,64.7,62.6,30.17,East,101,0.0,0.0,93,0.00,,,0.00,Wunderground v.1.15,2013-06-21 09:42:00,
2013-06-21 05:48:00,64.3,62.2,30.17,East,100,0.0,0.0,93,0.00,,,0.00,Wunderground v.1.15,2013-06-21 09:48:00,
2013-06-21 05:54:00,64.0,62.2,30.17,ESE,105,0.0,0.0,94,0.00,,,0.00,Wunderground v.1.15,2013-06-21 09:54:00,
2013-06-21 06:00:00,63.8,62.0,30.17,ESE,104,0.0,0.0,94,0.00,,,0.00,Wunderground v.1.15,2013-06-21 10:00:00,
2013-06-21 06:06:00,63.7,62.2,30.17,ESE,108,0.0,0.0,95,0.00,,,0.00,Wunderground v.1.15,2013-06-21 10:06:00,
2013-06-21 06:12:00,63.6,62.1,30.17,ESE,115,0.0,0.0,95,0.00,,,0.00,Wunderground v.1.15,2013-06-21 10:12:00,
2013-06-21 06:18:00,63.6,62.1,30.17,ESE,114,0.0,0.0,95,0.00,,,0.00,Wunderground v.1.15,2013-06-21 10:18:00,
2013-06-21 06:23:00,63.6,62.4,30.17,ESE,114,0.0,0.0,96,0.00,,,0.00,Wunderground v.1.15,2013-06-21 10:23:00,
2013-06-21 06:29:00,63.7,62.5,30.17,ESE,114,0.0,0.0,96,0.00,,,0.00,Wunderground v.1.15,2013-06-21 10:29:00,
2013-06-21 06:34:00,63.7,62.5,30.17,ESE,115,0.0,0.0,96,0.00,,,0.00,Wunderground v.1.15,2013-06-21 10:34:00,
2013-06-21 06:40:00,63.8,62.3,30.17,ESE,115,0.0,0.0,95,0.00,,,0.00,Wunderground v.1.15,2013-06-21 10:40:00,
2013-06-21 06:46:00,63.9,62.4,30.18,SSE,159,0.0,0.0,95,0.00,,,0.00,Wunderground v.1.15,2013-06-21 10:46:00,
2013-06-21 06:52:00,64.2,62.7,30.18,SSE,159,0.0,0.0,95,0.00,,,0.00,Wunderground v.1.15,2013-06-21 10:52:00,
2013-06-21 06:58:00,65.1,63.6,30.18,SSE,159,0.0,0.0,95,0.00,,,0.00,Wunderground v.1.15,2013-06-21 10:58:00,
2013-06-21 07:03:00,66.0,63.9,30.18,SSE,159,0.0,0.0,93,0.00,,,0.00,Wunderground v.1.15,2013-06-21 11:03:00,
2013-06-21 07:09:00,66.9,64.2,30.18,SSE,159,0.0,0.0,91,0.00,,,0.00,Wunderground v.1.15,2013-06-21 11:09:00,
2013-06-21 07:14:00,67.3,64.6,30.18,SE,141,0.0,0.0,91,0.00,,,0.00,Wunderground v.1.15,2013-06-21 11:14:00,
2013-06-21 07:20:00,68.0,64.6,30.18,ESE,120,0.0,0.0,89,0.00,,,0.00,Wunderground v.1.15,2013-06-21 11:20:00,
2013-06-21 07:26:00,68.7,65.0,30.19,ESE,122,0.0,0.0,88,0.00,,,0.00,Wunderground v.1.15,2013-06-21 11:26:00,
2013-06-21 07:32:00,69.5,64.8,30.19,SE,129,0.0,0.0,85,0.00,,,0.00,Wunderground v.1.15,2013-06-21 11:32:00,
2013-06-21 07:38:00,69.8,65.1,30.19,SE,129,0.0,0.0,85,0.00,,,0.00,Wunderground v.1.15,2013-06-21 11:38:00,
2013-06-21 07:44:00,69.8,65.1,30.19,SE,129,0.0,0.0,85,0.00,,,0.00,Wunderground v.1.15,2013-06-21 11:44:00,
2013-06-21 07:49:00,70.1,65.0,30.19,ESE,110,0.0,0.0,84,0.00,,,0.00,Wunderground v.1.15,2013-06-21 11:49:00,
2013-06-21 07:55:00,70.2,65.5,30.19,SE,135,0.0,0.0,85,0.00,,,0.00,Wunderground v.1.15,2013-06-21 11:55:00,
2013-06-21 08:00:00,70.5,65.4,30.19,ESE,109,0.0,0.0,84,0.00,,,0.00,Wunderground v.1.15,2013-06-21 12:00:00,
2013-06-21 08:06:00,70.9,65.5,30.19,ESE,116,0.0,2.0,83,0.00,,,0.00,Wunderground v.1.15,2013-06-21 12:06:00,
2013-06-21 08:12:00,71.5,66.1,30.19,SE,127,0.0,0.0,83,0.00,,,0.00,Wunderground v.1.15,2013-06-21 12:12:00,
2013-06-21 08:18:00,72.1,66.3,30.19,ESE,117,0.0,2.0,82,0.00,,,0.00,Wunderground v.1.15,2013-06-21 12:18:00,
2013-06-21 08:24:00,72.5,65.6,30.19,ESE,113,1.0,2.0,79,0.00,,,0.00,Wunderground v.1.15,2013-06-21 12:24:00,
2013-06-21 08:30:00,72.8,66.6,30.19,ESE,115,1.0,1.0,81,0.00,,,0.00,Wunderground v.1.15,2013-06-21 12:30:00,
2013-06-21 08:36:00,73.0,66.1,30.19,ESE,121,1.0,3.0,79,0.00,,,0.00,Wunderground v.1.15,2013-06-21 12:36:00,
2013-06-21 08:42:00,73.3,66.8,30.19,East,95,1.0,2.0,80,0.00,,,0.00,Wunderground v.1.15,2013-06-21 12:42:00,
2013-06-21 08:48:00,73.7,66.4,30.18,ESE,120,1.0,4.0,78,0.00,,,0.00,Wunderground v.1.15,2013-06-21 12:48:00,
2013-06-21 08:54:00,74.1,67.2,30.18,East,80,2.0,2.0,79,0.00,,,0.00,Wunderground v.1.15,2013-06-21 12:54:00,
2013-06-21 08:59:00,74.5,67.6,30.18,ESE,110,1.0,2.0,79,0.00,,,0.00,Wunderground v.1.15,2013-06-21 12:59:00,
2013-06-21 09:05:00,75.2,67.9,30.18,East,95,1.0,3.0,78,0.00,,,0.00,Wunderground v.1.15,2013-06-21 13:05:00,
2013-06-21 09:11:00,75.5,67.4,30.18,SSE,159,1.0,1.0,76,0.00,,,0.00,Wunderground v.1.15,2013-06-21 13:11:00,
2013-06-21 09:16:00,75.9,68.5,30.18,ENE,68,1.0,2.0,78,0.00,,,0.00,Wunderground v.1.15,2013-06-21 13:16:00,
2013-06-21 09:22:00,76.1,67.2,30.18,SE,133,1.0,3.0,74,0.00,,,0.00,Wunderground v.1.15,2013-06-21 13:22:00,
2013-06-21 09:28:00,76.4,68.7,30.18,SE,143,2.0,3.0,77,0.00,,,0.00,Wunderground v.1.15,2013-06-21 13:28:00,
2013-06-21 09:34:00,76.7,68.6,30.19,SSE,163,1.0,3.0,76,0.00,,,0.00,Wunderground v.1.15,2013-06-21 13:34:00,
2013-06-21 09:39:00,77.5,67.8,30.19,SSW,195,1.0,1.0,72,0.00,,,0.00,Wunderground v.1.15,2013-06-21 13:39:00,
2013-06-21 09:45:00,78.0,68.2,30.18,SSE,154,1.0,1.0,72,0.00,,,0.00,Wunderground v.1.15,2013-06-21 13:45:00,
2013-06-21 09:51:00,78.3,68.5,30.18,SSE,153,1.0,2.0,72,0.00,,,0.00,Wunderground v.1.15,2013-06-21 13:51:00,
2013-06-21 09:57:00,78.5,69.1,30.18,SSE,161,1.0,2.0,73,0.00,,,0.00,Wunderground v.1.15,2013-06-21 13:57:00,
2013-06-21 10:03:00,78.8,68.6,30.18,SSE,149,2.0,4.0,71,0.00,,,0.00,Wunderground v.1.15,2013-06-21 14:03:00,
2013-06-21 10:08:00,79.1,68.9,30.18,SW,221,1.0,4.0,71,0.00,,,0.00,Wunderground v.1.15,2013-06-21 14:08:00,
2013-06-21 10:14:00,79.3,69.1,30.19,SW,226,1.0,5.0,71,0.00,,,0.00,Wunderground v.1.15,2013-06-21 14:14:00,
2013-06-21 10:20:00,79.4,70.0,30.19,SW,218,1.0,1.0,73,0.00,,,0.00,Wunderground v.1.15,2013-06-21 14:20:00,
2013-06-21 10:26:00,79.8,68.7,30.19,SSE,158,1.0,5.0,69,0.00,,,0.00,Wunderground v.1.15,2013-06-21 14:26:00,
2013-06-21 10:32:00,79.9,70.1,30.19,SSW,207,2.0,3.0,72,0.00,,,0.00,Wunderground v.1.15,2013-06-21 14:32:00,
2013-06-21 10:38:00,80.2,69.5,30.19,SE,136,1.0,3.0,70,0.00,,,0.00,Wunderground v.1.15,2013-06-21 14:38:00,
2013-06-21 10:44:00,79.9,68.8,30.19,WSW,252,1.0,3.0,69,0.00,,,0.00,Wunderground v.1.15,2013-06-21 14:44:00,
2013-06-21 10:49:00,79.8,70.4,30.19,South,188,1.0,3.0,73,0.00,,,0.00,Wunderground v.1.15,2013-06-21 14:49:00,
2013-06-21 10:55:00,80.3,70.0,30.19,South,186,2.0,4.0,71,0.00,,,0.00,Wunderground v.1.15,2013-06-21 14:55:00,
2013-06-21 11:00:00,80.6,69.5,30.19,SW,221,2.0,2.0,69,0.00,,,0.00,Wunderground v.1.15,2013-06-21 15:00:00,
2013-06-21 11:06:00,80.8,70.5,30.19,SSW,192,2.0,3.0,71,0.00,,,0.00,Wunderground v.1.15,2013-06-21 15:06:00,
2013-06-21 11:11:00,81.1,70.0,30.19,SSE,147,2.0,3.0,69,0.00,,,0.00,Wunderground v.1.15,2013-06-21 15:11:00,
2013-06-21 11:17:00,81.6,69.6,30.19,SSW,193,2.0,3.0,67,0.00,,,0.00,Wunderground v.1.15,2013-06-21 15:17:00,
2013-06-21 11:22:00,81.9,69.9,30.18,SSE,149,2.0,2.0,67,0.00,,,0.00,Wunderground v.1.15,2013-06-21 15:22:00,
2013-06-21 11:28:00,82.1,68.7,30.19,WNW,293,2.0,3.0,64,0.00,,,0.00,Wunderground v.1.15,2013-06-21 15:28:00,
2013-06-21 11:34:00,81.3,69.7,30.19,WSW,243,2.0,5.0,68,0.00,,,0.00,Wunderground v.1.15,2013-06-21 15:34:00,
2013-06-21 11:39:00,81.4,69.8,30.19,SW,236,2.0,5.0,68,0.00,,,0.00,Wunderground v.1.15,2013-06-21 15:39:00,
2013-06-21 11:45:00,81.4,69.4,30.19,WSW,244,2.0,4.0,67,0.00,,,0.00,Wunderground v.1.15,2013-06-21 15:45:00,
2013-06-21 11:50:00,81.2,68.3,30.19,WSW,257,2.0,2.0,65,0.00,,,0.00,Wunderground v.1.15,2013-06-21 15:50:00,
2013-06-21 11:56:00,81.6,68.7,30.19,WSW,239,2.0,4.0,65,0.00,,,0.00,Wunderground v.1.15,2013-06-21 15:56:00,
2013-06-21 12:02:00,82.3,69.4,30.19,SSW,201,2.0,2.0,65,0.00,,,0.00,Wunderground v.1.15,2013-06-21 16:02:00,
2013-06-21 12:08:00,82.0,70.0,30.19,SE,133,2.0,4.0,67,0.00,,,0.00,Wunderground v.1.15,2013-06-21 16:08:00,
2013-06-21 12:14:00,82.9,69.9,30.19,SW,218,1.0,3.0,65,0.00,,,0.00,Wunderground v.1.15,2013-06-21 16:14:00,
2013-06-21 12:20:00,83.6,69.2,30.19,South,187,2.0,2.0,62,0.00,,,0.00,Wunderground v.1.15,2013-06-21 16:20:00,
2013-06-21 12:26:00,84.1,70.6,30.20,SW,221,2.0,2.0,64,0.00,,,0.00,Wunderground v.1.15,2013-06-21 16:26:00,
2013-06-21 12:32:00,84.8,70.3,30.19,WSW,240,1.0,2.0,62,0.00,,,0.00,Wunderground v.1.15,2013-06-21 16:32:00,
2013-06-21 12:37:00,85.1,69.7,30.20,ESE,120,1.0,2.0,60,0.00,,,0.00,Wunderground v.1.15,2013-06-21 16:37:00,
2013-06-21 12:43:00,85.0,70.5,30.20,SW,223,1.0,2.0,62,0.00,,,0.00,Wunderground v.1.15,2013-06-21 16:43:00,
2013-06-21 12:49:00,84.9,69.0,30.19,ESE,106,2.0,2.0,59,0.00,,,0.00,Wunderground v.1.15,2013-06-21 16:49:00,
2013-06-21 12:54:00,85.1,71.1,30.19,SW,225,2.0,3.0,63,0.00,,,0.00,Wunderground v.1.15,2013-06-21 16:54:00,
2013-06-21 12:59:00,85.8,70.3,30.19,SE,135,1.0,3.0,60,0.00,,,0.00,Wunderground v.1.15,2013-06-21 16:59:00,
2013-06-21 13:04:00,85.9,69.9,30.19,North,9,1.0,3.0,59,0.00,,,0.00,Wunderground v.1.15,2013-06-21 17:04:00,
2013-06-21 13:11:00,83.8,70.3,30.19,WSW,256,1.0,2.0,64,0.00,,,0.00,Wunderground v.1.15,2013-06-21 17:11:00,
2013-06-21 13:17:00,83.2,69.3,30.19,SW,223,1.0,2.0,63,0.00,,,0.00,Wunderground v.1.15,2013-06-21 17:17:00,
2013-06-21 13:23:00,84.2,71.2,30.19,SSE,155,1.0,3.0,65,0.00,,,0.00,Wunderground v.1.15,2013-06-21 17:23:00,
2013-06-21 13:28:00,84.6,70.1,30.19,SSE,152,1.0,3.0,62,0.00,,,0.00,Wunderground v.1.15,2013-06-21 17:28:00,
2013-06-21 13:33:00,84.8,68.9,30.19,WSW,239,1.0,2.0,59,0.00,,,0.00,Wunderground v.1.15,2013-06-21 17:33:00,
2013-06-21 13:39:00,84.1,70.1,30.19,WSW,250,1.0,4.0,63,0.00,,,0.00,Wunderground v.1.15,2013-06-21 17:39:00,
2013-06-21 13:45:00,84.2,69.3,30.19,West,277,1.0,2.0,61,0.00,,,0.00,Wunderground v.1.15,2013-06-21 17:45:00,
2013-06-21 13:46:00,84.3,71.2,30.19,SSW,194,1.0,4.0,65,0.00,,,0.00,Wunderground v.1.15,2013-06-21 17:46:00,
2013-06-21 13:47:00,84.5,69.6,30.19,West,274,1.0,4.0,61,0.00,,,0.00,Wunderground v.1.15,2013-06-21 17:47:00,
2013-06-21 13:48:00,84.7,70.7,30.19,SW,236,1.0,4.0,63,0.00,,,0.00,Wunderground v.1.15,2013-06-21 17:48:00,
2013-06-21 13:50:00,84.9,71.4,30.19,SSW,203,1.0,5.0,64,0.00,,,0.00,Wunderground v.1.15,2013-06-21 17:50:00,
2013-06-21 13:51:00,85.0,70.5,30.19,SSW,211,2.0,5.0,62,0.00,,,0.00,Wunderground v.1.15,2013-06-21 17:51:00,
2013-06-21 13:57:00,84.9,70.4,30.19,West,259,2.0,5.0,62,0.00,,,0.00,Wunderground v.1.15,2013-06-21 17:57:00,
2013-06-21 14:02:00,85.3,69.8,30.19,SW,218,2.0,2.0,60,0.00,,,0.00,Wunderground v.1.15,2013-06-21 18:02:00,
2013-06-21 14:07:00,85.7,69.7,30.19,SSE,149,1.0,2.0,59,0.00,,,0.00,Wunderground v.1.15,2013-06-21 18:07:00,
2013-06-21 14:12:00,85.6,69.1,30.18,SSE,147,1.0,1.0,58,0.00,,,0.00,Wunderground v.1.15,2013-06-21 18:12:00,
2013-06-21 14:18:00,85.3,68.3,30.18,SW,229,0.0,2.0,57,0.00,,,0.00,Wunderground v.1.15,2013-06-21 18:18:00,
2013-06-21 14:24:00,85.1,70.6,30.18,SE,134,1.0,3.0,62,0.00,,,0.00,Wunderground v.1.15,2013-06-21 18:24:00,
2013-06-21 14:26:00,85.3,72.6,30.18,SW,235,1.0,3.0,66,0.00,,,0.00,Wunderground v.1.15,2013-06-21 18:26:00,
2013-06-21 14:27:00,85.4,69.9,30.17,West,281,1.0,3.0,60,0.00,,,0.00,Wunderground v.1.15,2013-06-21 18:27:00,
2013-06-21 14:28:00,85.4,70.9,30.17,WSW,255,1.0,3.0,62,0.00,,,0.00,Wunderground v.1.15,2013-06-21 18:28:00,
2013-06-21 14:34:00,85.3,69.8,30.17,SSE,160,1.0,2.0,60,0.00,,,0.00,Wunderground v.1.15,2013-06-21 18:34:00,
2013-06-21 14:35:00,85.4,69.9,30.17,SSE,154,2.0,2.0,60,0.00,,,0.00,Wunderground v.1.15,2013-06-21 18:35:00,
2013-06-21 14:41:00,86.1,69.1,30.17,SE,134,1.0,2.0,57,0.00,,,0.00,Wunderground v.1.15,2013-06-21 18:41:00,
2013-06-21 14:46:00,86.8,68.7,30.17,SSE,150,1.0,2.0,55,0.00,,,0.00,Wunderground v.1.15,2013-06-21 18:46:00,
2013-06-21 14:47:00,86.9,68.3,30.17,SW,218,1.0,2.0,54,0.00,,,0.00,Wunderground v.1.15,2013-06-21 18:47:00,
2013-06-21 14:48:00,86.9,67.7,30.17,WNW,284,1.0,2.0,53,0.00,,,0.00,Wunderground v.1.15,2013-06-21 18:48:00,
2013-06-21 14:49:00,86.8,68.2,30.17,SSE,150,1.0,3.0,54,0.00,,,0.00,Wunderground v.1.15,2013-06-21 18:49:00,
2013-06-21 14:54:00,86.7,70.7,30.17,SSW,208,1.0,2.0,59,0.00,,,0.00,Wunderground v.1.15,2013-06-21 18:54:00,
2013-06-21 15:00:00,86.2,67.6,30.17,West,274,1.0,1.0,54,0.00,,,0.00,Wunderground v.1.15,2013-06-21 19:00:00,
2013-06-21 15:06:00,86.5,67.9,30.16,WNW,283,0.0,1.0,54,0.00,,,0.00,Wunderground v.1.15,2013-06-21 19:06:00,
2013-06-21 15:12:00,86.3,69.3,30.17,SW,233,1.0,5.0,57,0.00,,,0.00,Wunderground v.1.15,2013-06-21 19:12:00,
2013-06-21 15:17:00,85.8,67.8,30.17,WSW,257,1.0,5.0,55,0.00,,,0.00,Wunderground v.1.15,2013-06-21 19:17:00,
2013-06-21 15:23:00,86.3,68.2,30.16,SSE,155,1.0,1.0,55,0.00,,,0.00,Wunderground v.1.15,2013-06-21 19:23:00,
2013-06-21 15:29:00,86.8,68.2,30.16,South,170,1.0,4.0,54,0.00,,,0.00,Wunderground v.1.15,2013-06-21 19:29:00,
2013-06-21 15:35:00,85.9,68.9,30.16,South,176,2.0,2.0,57,0.00,,,0.00,Wunderground v.1.15,2013-06-21 19:35:00,
2013-06-21 15:40:00,86.2,71.2,30.15,SSW,195,1.0,2.0,61,0.00,,,0.00,Wunderground v.1.15,2013-06-21 19:40:00,
2013-06-21 15:43:00,86.6,71.1,30.15,SSW,198,1.0,5.0,60,0.00,,,0.00,Wunderground v.1.15,2013-06-21 19:43:00,
2013-06-21 15:48:00,86.8,72.2,30.15,SE,131,2.0,5.0,62,0.00,,,0.00,Wunderground v.1.15,2013-06-21 19:48:00,
2013-06-21 15:54:00,86.7,70.2,30.15,SSE,156,2.0,4.0,58,0.00,,,0.00,Wunderground v.1.15,2013-06-21 19:54:00,
2013-06-21 15:59:00,86.5,69.5,30.15,SW,232,2.0,4.0,57,0.00,,,0.00,Wunderground v.1.15,2013-06-21 19:59:00,
2013-06-21 16:05:00,86.9,69.3,30.15,WSW,242,2.0,3.0,56,0.00,,,0.00,Wunderground v.1.15,2013-06-21 20:05:00,
2013-06-21 16:10:00,86.8,68.7,30.15,WSW,238,2.0,2.0,55,0.00,,,0.00,Wunderground v.1.15,2013-06-21 20:10:00,
2013-06-21 16:14:00,87.1,69.5,30.14,SE,126,2.0,2.0,56,0.00,,,0.00,Wunderground v.1.15,2013-06-21 20:14:00,
2013-06-21 16:20:00,87.2,69.1,30.14,SW,235,1.0,1.0,55,0.00,,,0.00,Wunderground v.1.15,2013-06-21 20:20:00,
2013-06-21 16:26:00,87.4,67.6,30.14,South,179,1.0,3.0,52,0.00,,,0.00,Wunderground v.1.15,2013-06-21 20:26:00,
2013-06-21 16:32:00,86.9,67.2,30.14,WSW,256,2.0,2.0,52,0.00,,,0.00,Wunderground v.1.15,2013-06-21 20:32:00,
2013-06-21 16:38:00,86.9,68.3,30.14,SSE,162,2.0,4.0,54,0.00,,,0.00,Wunderground v.1.15,2013-06-21 20:38:00,
2013-06-21 16:43:00,86.9,69.3,30.13,West,264,2.0,3.0,56,0.00,,,0.00,Wunderground v.1.15,2013-06-21 20:43:00,
2013-06-21 16:49:00,87.1,69.0,30.13,South,179,1.0,4.0,55,0.00,,,0.00,Wunderground v.1.15,2013-06-21 20:49:00,
2013-06-21 16:55:00,87.5,70.4,30.13,SW,217,1.0,1.0,57,0.00,,,0.00,Wunderground v.1.15,2013-06-21 20:55:00,
2013-06-21 17:00:00,87.6,68.9,30.13,SE,142,1.0,2.0,54,0.00,,,0.00,Wunderground v.1.15,2013-06-21 21:00:00,
2013-06-21 17:06:00,87.3,68.1,30.13,West,273,2.0,2.0,53,0.00,,,0.00,Wunderground v.1.15,2013-06-21 21:06:00,
2013-06-21 17:09:00,87.2,69.1,30.13,NNW,341,1.0,2.0,55,0.00,,,0.00,Wunderground v.1.15,2013-06-21 21:09:00,
2013-06-21 17:14:00,86.5,68.4,30.12,SW,226,1.0,3.0,55,0.00,,,0.00,Wunderground v.1.15,2013-06-21 21:14:00,
2013-06-21 17:19:00,86.5,69.5,30.12,SE,125,2.0,3.0,57,0.00,,,0.00,Wunderground v.1.15,2013-06-21 21:19:00,
2013-06-21 17:25:00,87.0,68.9,30.13,SSE,162,2.0,3.0,55,0.00,,,0.00,Wunderground v.1.15,2013-06-21 21:25:00,
2013-06-21 17:31:00,86.8,68.7,30.12,WSW,249,1.0,2.0,55,0.00,,,0.00,Wunderground v.1.15,2013-06-21 21:31:00,
2013-06-21 17:37:00,86.7,68.1,30.12,East,81,1.0,2.0,54,0.00,,,0.00,Wunderground v.1.15,2013-06-21 21:37:00,
2013-06-21 17:42:00,86.8,69.7,30.12,WSW,243,1.0,1.0,57,0.00,,,0.00,Wunderground v.1.15,2013-06-21 21:42:00,
2013-06-21 17:47:00,87.1,69.5,30.12,SSW,211,1.0,4.0,56,0.00,,,0.00,Wunderground v.1.15,2013-06-21 21:47:00,
2013-06-21 17:53:00,87.3,68.6,30.12,SSE,165,1.0,4.0,54,0.00,,,0.00,Wunderground v.1.15,2013-06-21 21:53:00,
2013-06-21 17:58:00,87.3,69.7,30.11,SSW,208,1.0,4.0,56,0.00,,,0.00,Wunderground v.1.15,2013-06-21 21:58:00,
2013-06-21 18:04:00,87.3,68.6,30.11,SW,228,1.0,2.0,54,0.00,,,0.00,Wunderground v.1.15,2013-06-21 22:04:00,
2013-06-21 18:10:00,87.4,69.8,30.11,SSW,201,1.0,1.0,56,0.00,,,0.00,Wunderground v.1.15,2013-06-21 22:10:00,
2013-06-21 18:16:00,87.3,70.2,30.11,SSE,155,2.0,4.0,57,0.00,,,0.00,Wunderground v.1.15,2013-06-21 22:16:00,
2013-06-21 18:21:00,87.2,68.5,30.10,SSE,156,1.0,1.0,54,0.00,,,0.00,Wunderground v.1.15,2013-06-21 22:21:00,
2013-06-21 18:27:00,86.5,70.0,30.10,SSW,207,2.0,6.0,58,0.00,,,0.00,Wunderground v.1.15,2013-06-21 22:27:00,
2013-06-21 18:32:00,86.6,70.1,30.10,SSE,162,2.0,2.0,58,0.00,,,0.00,Wunderground v.1.15,2013-06-21 22:32:00,
2013-06-21 18:38:00,85.9,69.9,30.10,East,88,2.0,4.0,59,0.00,,,0.00,Wunderground v.1.15,2013-06-21 22:38:00,
2013-06-21 18:43:00,85.6,70.6,30.10,SE,145,2.0,3.0,61,0.00,,,0.00,Wunderground v.1.15,2013-06-21 22:43:00,
2013-06-21 18:49:00,85.9,70.4,30.10,South,172,1.0,3.0,60,0.00,,,0.00,Wunderground v.1.15,2013-06-21 22:49:00,
2013-06-21 18:55:00,86.6,70.1,30.11,SW,235,0.0,1.0,58,0.00,,,0.00,Wunderground v.1.15,2013-06-21 22:55:00,
2013-06-21 19:00:00,87.3,69.2,30.11,ESE,108,0.0,2.0,55,0.00,,,0.00,Wunderground v.1.15,2013-06-21 23:00:00,
2013-06-21 19:06:00,86.2,69.7,30.11,SSE,152,1.0,2.0,58,0.00,,,0.00,Wunderground v.1.15,2013-06-21 23:06:00,
2013-06-21 19:12:00,86.4,69.9,30.11,WSW,245,1.0,2.0,58,0.00,,,0.00,Wunderground v.1.15,2013-06-21 23:12:00,
2013-06-21 19:17:00,86.2,69.7,30.11,SSE,156,1.0,2.0,58,0.00,,,0.00,Wunderground v.1.15,2013-06-21 23:17:00,
2013-06-21 19:23:00,85.9,69.9,30.11,SW,215,0.0,1.0,59,0.00,,,0.00,Wunderground v.1.15,2013-06-21 23:23:00,
2013-06-21 19:29:00,86.1,68.0,30.11,SSE,165,0.0,3.0,55,0.00,,,0.00,Wunderground v.1.15,2013-06-21 23:29:00,
2013-06-21 19:34:00,86.4,69.9,30.12,SSW,195,0.0,0.0,58,0.00,,,0.00,Wunderground v.1.15,2013-06-21 23:34:00,
2013-06-21 19:40:00,86.6,68.5,30.12,South,173,0.0,0.0,55,0.00,,,0.00,Wunderground v.1.15,2013-06-21 23:40:00,
2013-06-21 19:45:00,86.5,68.9,30.11,SSE,160,0.0,0.0,56,0.00,,,0.00,Wunderground v.1.15,2013-06-21 23:45:00,
2013-06-21 19:51:00,85.7,68.7,30.12,SE,126,0.0,0.0,57,0.00,,,0.00,Wunderground v.1.15,2013-06-21 23:51:00,
2013-06-21 19:57:00,85.0,68.6,30.12,SE,138,0.0,0.0,58,0.00,,,0.00,Wunderground v.1.15,2013-06-21 23:57:00,
2013-06-21 20:02:00,84.5,69.1,30.12,ESE,122,0.0,0.0,60,0.00,,,0.00,Wunderground v.1.15,2013-06-22 00:02:00,
2013-06-21 20:08:00,83.7,69.3,30.11,ESE,122,0.0,0.0,62,0.00,,,0.00,Wunderground v.1.15,2013-06-22 00:08:00,
2013-06-21 20:13:00,83.0,68.6,30.12,ESE,122,0.0,0.0,62,0.00,,,0.00,Wunderground v.1.15,2013-06-22 00:13:00,
2013-06-21 20:19:00,82.5,69.1,30.11,SE,144,0.0,0.0,64,0.00,,,0.00,Wunderground v.1.15,2013-06-22 00:19:00,
2013-06-21 20:25:00,82.0,69.1,30.11,SE,143,0.0,0.0,65,0.00,,,0.00,Wunderground v.1.15,2013-06-22 00:25:00,
2013-06-21 20:30:00,81.7,69.7,30.11,SE,143,0.0,0.0,67,0.00,,,0.00,Wunderground v.1.15,2013-06-22 00:30:00,
2013-06-21 20:36:00,81.2,69.6,30.11,SE,143,0.0,0.0,68,0.00,,,0.00,Wunderground v.1.15,2013-06-22 00:36:00,
2013-06-21 20:42:00,80.5,69.4,30.12,SE,143,0.0,0.0,69,0.00,,,0.00,Wunderground v.1.15,2013-06-22 00:42:00,
2013-06-21 20:47:00,79.7,69.0,30.12,SE,143,0.0,0.0,70,0.00,,,0.00,Wunderground v.1.15,2013-06-22 00:47:00,
2013-06-21 20:53:00,79.0,69.2,30.12,SE,144,0.0,0.0,72,0.00,,,0.00,Wunderground v.1.15,2013-06-22 00:53:00,
2013-06-21 20:59:00,78.3,69.3,30.12,SE,143,0.0,0.0,74,0.00,,,0.00,Wunderground v.1.15,2013-06-22 00:59:00,
2013-06-21 21:05:00,77.8,68.8,30.13,SE,143,0.0,0.0,74,0.00,,,0.00,Wunderground v.1.15,2013-06-22 01:05:00,
2013-06-21 21:10:00,77.4,68.9,30.13,SE,143,0.0,0.0,75,0.00,,,0.00,Wunderground v.1.15,2013-06-22 01:10:00,
2013-06-21 21:16:00,77.0,69.6,30.13,SE,144,0.0,0.0,78,0.00,,,0.00,Wunderground v.1.15,2013-06-22 01:16:00,
2013-06-21 21:22:00,76.6,68.8,30.13,SE,144,0.0,0.0,77,0.00,,,0.00,Wunderground v.1.15,2013-06-22 01:22:00,
2013-06-21 21:28:00,76.4,69.0,30.13,SE,143,0.0,0.0,78,0.00,,,0.00,Wunderground v.1.15,2013-06-22 01:28:00,
2013-06-21 21:34:00,75.9,69.3,30.13,SE,143,0.0,0.0,80,0.00,,,0.00,Wunderground v.1.15,2013-06-22 01:34:00,
2013-06-21 21:40:00,75.1,68.9,30.13,SE,143,0.0,0.0,81,0.00,,,0.00,Wunderground v.1.15,2013-06-22 01:40:00,
2013-06-21 21:46:00,74.7,68.8,30.13,SE,143,0.0,0.0,82,0.00,,,0.00,Wunderground v.1.15,2013-06-22 01:46:00,
2013-06-21 21:53:00,74.3,68.8,30.13,SE,143,0.0,0.0,83,0.00,,,0.00,Wunderground v.1.15,2013-06-22 01:53:00,
2013-06-21 21:58:00,74.2,69.1,30.13,SE,143,0.0,0.0,84,0.00,,,0.00,Wunderground v.1.15,2013-06-22 01:58:00,
2013-06-21 22:04:00,74.1,69.0,30.13,SE,144,0.0,0.0,84,0.00,,,0.00,Wunderground v.1.15,2013-06-22 02:04:00,
2013-06-21 22:09:00,73.8,69.3,30.13,SE,143,0.0,0.0,86,0.00,,,0.00,Wunderground v.1.15,2013-06-22 02:09:00,
2013-06-21 22:15:00,73.4,69.0,30.13,SE,143,0.0,0.0,86,0.00,,,0.00,Wunderground v.1.15,2013-06-22 02:15:00,
2013-06-21 22:21:00,73.1,68.7,30.14,SE,144,0.0,0.0,86,0.00,,,0.00,Wunderground v.1.15,2013-06-22 02:21:00,
2013-06-21 22:27:00,73.3,69.2,30.14,WSW,249,0.0,0.0,87,0.00,,,0.00,Wunderground v.1.15,2013-06-22 02:27:00,
2013-06-21 22:32:00,73.9,68.4,30.15,SW,226,1.0,3.0,83,0.00,,,0.00,Wunderground v.1.15,2013-06-22 02:32:00,
2013-06-21 22:38:00,74.6,67.7,30.15,WSW,258,1.0,3.0,79,0.00,,,0.00,Wunderground v.1.15,2013-06-22 02:38:00,
2013-06-21 22:44:00,74.8,67.1,30.15,WSW,246,1.0,1.0,77,0.00,,,0.00,Wunderground v.1.15,2013-06-22 02:44:00,
2013-06-21 22:49:00,74.6,66.9,30.15,South,181,0.0,1.0,77,0.00,,,0.00,Wunderground v.1.15,2013-06-22 02:49:00,
2013-06-21 22:55:00,74.1,66.0,30.14,SW,232,0.0,0.0,76,0.00,,,0.00,Wunderground v.1.15,2013-06-22 02:55:00,
2013-06-21 23:00:00,73.9,65.9,30.14,SSE,163,0.0,0.0,76,0.00,,,0.00,Wunderground v.1.15,2013-06-22 03:00:00,
2013-06-21 23:06:00,73.6,65.9,30.14,South,187,0.0,0.0,77,0.00,,,0.00,Wunderground v.1.15,2013-06-22 03:06:00,
2013-06-21 23:12:00,73.3,64.9,30.14,SE,129,0.0,0.0,75,0.00,,,0.00,Wunderground v.1.15,2013-06-22 03:12:00,
2013-06-21 23:18:00,73.1,65.1,30.14,SE,128,0.0,0.0,76,0.00,,,0.00,Wunderground v.1.15,2013-06-22 03:18:00,
2013-06-21 23:23:00,73.5,64.7,30.14,NNW,333,0.0,0.0,74,0.00,,,0.00,Wunderground v.1.15,2013-06-22 03:23:00,
2013-06-21 23:29:00,73.9,64.7,30.14,NNW,340,0.0,0.0,73,0.00,,,0.00,Wunderground v.1.15,2013-06-22 03:29:00,
2013-06-21 23:34:00,73.9,65.1,30.14,NNW,340,0.0,0.0,74,0.00,,,0.00,Wunderground v.1.15,2013-06-22 03:34:00,
2013-06-21 23:40:00,73.4,65.0,30.14,NNW,340,0.0,0.0,75,0.00,,,0.00,Wunderground v.1.15,2013-06-22 03:40:00,
2013-06-21 23:46:00,73.0,65.0,30.14,NNW,340,0.0,0.0,76,0.00,,,0.00,Wunderground v.1.15,2013-06-22 03:46:00,
2013-06-21 23:51:00,72.6,65.0,30.14,East,100,0.0,0.0,77,0.00,,,0.00,Wunderground v.1.15,2013-06-22 03:51:00,
2013-06-21 23:57:00,72.4,65.2,30.14,ESE,102,0.0,0.0,78,0.00,,,0.00,Wunderground v.1.15,2013-06-22 03:57:00,